sensor_id;sensor_type;location;lat;lon;timestamp;P1;durP1;ratioP1;P2;durP2;ratioP2
1691;SDS011;843;52.054;8.552;2022-09-17T00:02:13;12.27;;;3.03;;
1691;SDS011;843;52.054;8.552;2022-09-17T00:04:40;4.33;;;2.03;;
1691;SDS011;843;52.054;8.552;2022-09-17T00:07:08;5.63;;;2.10;;
1691;SDS011;843;52.054;8.552;2022-09-17T00:09:35;2.90;;;1.73;;
1691;SDS011;843;52.054;8.552;2022-09-17T00:12:02;7.10;;;2.50;;
1691;SDS011;843;52.054;8.552;2022-09-17T00:14:29;4.97;;;1.80;;
1691;SDS011;843;52.054;8.552;2022-09-17T00:16:55;4.73;;;2.03;;
1691;SDS011;843;52.054;8.552;2022-09-17T00:19:22;4.33;;;2.10;;
1691;SDS011;843;52.054;8.552;2022-09-17T00:21:49;5.50;;;1.60;;
1691;SDS011;843;52.054;8.552;2022-09-17T00:24:18;4.77;;;1.83;;
1691;SDS011;843;52.054;8.552;2022-09-17T00:26:45;8.70;;;2.10;;
1691;SDS011;843;52.054;8.552;2022-09-17T00:29:12;8.47;;;3.03;;
1691;SDS011;843;52.054;8.552;2022-09-17T00:31:39;7.93;;;2.60;;
1691;SDS011;843;52.054;8.552;2022-09-17T00:34:06;10.90;;;2.57;;
1691;SDS011;843;52.054;8.552;2022-09-17T00:36:33;7.80;;;2.63;;
1691;SDS011;843;52.054;8.552;2022-09-17T00:39:00;6.53;;;2.33;;
1691;SDS011;843;52.054;8.552;2022-09-17T00:41:30;9.57;;;3.10;;
1691;SDS011;843;52.054;8.552;2022-09-17T00:43:58;7.03;;;3.13;;
1691;SDS011;843;52.054;8.552;2022-09-17T00:46:28;9.60;;;2.93;;
1691;SDS011;843;52.054;8.552;2022-09-17T00:48:58;6.63;;;2.97;;
1691;SDS011;843;52.054;8.552;2022-09-17T00:51:27;11.00;;;2.60;;
1691;SDS011;843;52.054;8.552;2022-09-17T00:53:58;5.27;;;2.63;;
1691;SDS011;843;52.054;8.552;2022-09-17T00:56:26;9.03;;;2.50;;
1691;SDS011;843;52.054;8.552;2022-09-17T00:58:56;11.70;;;3.20;;
1691;SDS011;843;52.054;8.552;2022-09-17T01:01:23;10.40;;;3.37;;
1691;SDS011;843;52.054;8.552;2022-09-17T01:03:49;8.47;;;3.40;;
1691;SDS011;843;52.054;8.552;2022-09-17T01:06:18;9.50;;;3.03;;
1691;SDS011;843;52.054;8.552;2022-09-17T01:08:55;11.10;;;2.93;;
1691;SDS011;843;52.054;8.552;2022-09-17T01:11:33;9.07;;;2.90;;
1691;SDS011;843;52.054;8.552;2022-09-17T01:14:13;8.80;;;2.60;;
1691;SDS011;843;52.054;8.552;2022-09-17T01:16:47;10.83;;;3.40;;
1691;SDS011;843;52.054;8.552;2022-09-17T01:19:28;15.53;;;3.13;;
1691;SDS011;843;52.054;8.552;2022-09-17T01:22:05;14.63;;;3.27;;
1691;SDS011;843;52.054;8.552;2022-09-17T01:24:41;9.50;;;3.30;;
1691;SDS011;843;52.054;8.552;2022-09-17T01:32:59;13.60;;;3.33;;
1691;SDS011;843;52.054;8.552;2022-09-17T01:35:32;8.77;;;3.20;;
1691;SDS011;843;52.054;8.552;2022-09-17T01:38:02;11.77;;;3.23;;
1691;SDS011;843;52.054;8.552;2022-09-17T01:40:35;14.63;;;3.60;;
1691;SDS011;843;52.054;8.552;2022-09-17T01:43:04;15.73;;;3.70;;
1691;SDS011;843;52.054;8.552;2022-09-17T01:45:36;10.50;;;4.10;;
1691;SDS011;843;52.054;8.552;2022-09-17T01:48:06;14.93;;;4.30;;
1691;SDS011;843;52.054;8.552;2022-09-17T01:50:36;12.60;;;3.00;;
1691;SDS011;843;52.054;8.552;2022-09-17T01:53:04;9.90;;;4.10;;
1691;SDS011;843;52.054;8.552;2022-09-17T01:55:34;14.03;;;3.50;;
1691;SDS011;843;52.054;8.552;2022-09-17T01:58:04;12.03;;;3.27;;
1691;SDS011;843;52.054;8.552;2022-09-17T02:00:36;20.93;;;4.40;;
1691;SDS011;843;52.054;8.552;2022-09-17T02:03:07;12.40;;;4.47;;
1691;SDS011;843;52.054;8.552;2022-09-17T02:05:38;19.60;;;5.40;;
1691;SDS011;843;52.054;8.552;2022-09-17T02:08:07;15.17;;;4.10;;
1691;SDS011;843;52.054;8.552;2022-09-17T02:10:35;10.10;;;4.30;;
1691;SDS011;843;52.054;8.552;2022-09-17T02:13:07;17.90;;;4.37;;
1691;SDS011;843;52.054;8.552;2022-09-17T02:15:37;17.57;;;4.90;;
1691;SDS011;843;52.054;8.552;2022-09-17T02:18:07;11.50;;;4.73;;
1691;SDS011;843;52.054;8.552;2022-09-17T02:20:40;20.03;;;5.53;;
1691;SDS011;843;52.054;8.552;2022-09-17T02:23:11;15.20;;;5.03;;
1691;SDS011;843;52.054;8.552;2022-09-17T02:25:41;14.57;;;4.97;;
1691;SDS011;843;52.054;8.552;2022-09-17T02:28:10;19.93;;;5.77;;
1691;SDS011;843;52.054;8.552;2022-09-17T02:30:42;15.20;;;4.87;;
1691;SDS011;843;52.054;8.552;2022-09-17T02:33:09;20.20;;;4.83;;
1691;SDS011;843;52.054;8.552;2022-09-17T02:35:38;19.63;;;4.97;;
1691;SDS011;843;52.054;8.552;2022-09-17T02:38:05;19.70;;;4.53;;
1691;SDS011;843;52.054;8.552;2022-09-17T02:40:34;13.10;;;4.40;;
1691;SDS011;843;52.054;8.552;2022-09-17T02:43:05;14.80;;;4.27;;
1691;SDS011;843;52.054;8.552;2022-09-17T02:45:39;11.97;;;4.00;;
1691;SDS011;843;52.054;8.552;2022-09-17T02:48:19;23.87;;;4.40;;
1691;SDS011;843;52.054;8.552;2022-09-17T02:51:00;15.23;;;4.60;;
1691;SDS011;843;52.054;8.552;2022-09-17T02:53:34;12.50;;;4.30;;
1691;SDS011;843;52.054;8.552;2022-09-17T02:56:08;11.80;;;3.97;;
1691;SDS011;843;52.054;8.552;2022-09-17T02:58:39;12.60;;;4.10;;
1691;SDS011;843;52.054;8.552;2022-09-17T03:01:13;11.90;;;3.80;;
1691;SDS011;843;52.054;8.552;2022-09-17T03:03:44;16.67;;;4.77;;
1691;SDS011;843;52.054;8.552;2022-09-17T03:06:14;13.57;;;4.37;;
1691;SDS011;843;52.054;8.552;2022-09-17T03:08:41;13.60;;;3.83;;
1691;SDS011;843;52.054;8.552;2022-09-17T03:11:09;16.13;;;4.50;;
1691;SDS011;843;52.054;8.552;2022-09-17T03:13:37;17.33;;;4.97;;
1691;SDS011;843;52.054;8.552;2022-09-17T03:16:04;11.70;;;4.93;;
1691;SDS011;843;52.054;8.552;2022-09-17T03:18:32;11.87;;;3.83;;
1691;SDS011;843;52.054;8.552;2022-09-17T03:20:59;17.73;;;4.23;;
1691;SDS011;843;52.054;8.552;2022-09-17T03:23:26;21.40;;;4.03;;
1691;SDS011;843;52.054;8.552;2022-09-17T03:25:53;12.63;;;4.23;;
1691;SDS011;843;52.054;8.552;2022-09-17T03:28:20;9.57;;;3.30;;
1691;SDS011;843;52.054;8.552;2022-09-17T03:30:46;14.60;;;3.70;;
1691;SDS011;843;52.054;8.552;2022-09-17T03:33:13;14.10;;;3.60;;
1691;SDS011;843;52.054;8.552;2022-09-17T03:35:42;23.00;;;3.60;;
1691;SDS011;843;52.054;8.552;2022-09-17T03:38:09;18.20;;;3.27;;
1691;SDS011;843;52.054;8.552;2022-09-17T03:40:36;9.53;;;3.27;;
1691;SDS011;843;52.054;8.552;2022-09-17T03:43:03;17.70;;;4.70;;
1691;SDS011;843;52.054;8.552;2022-09-17T03:45:30;15.57;;;3.63;;
1691;SDS011;843;52.054;8.552;2022-09-17T03:47:57;13.00;;;3.90;;
1691;SDS011;843;52.054;8.552;2022-09-17T03:50:23;11.57;;;3.03;;
1691;SDS011;843;52.054;8.552;2022-09-17T03:52:53;9.13;;;3.30;;
1691;SDS011;843;52.054;8.552;2022-09-17T03:55:19;11.60;;;4.13;;
1691;SDS011;843;52.054;8.552;2022-09-17T03:57:46;13.33;;;2.67;;
1691;SDS011;843;52.054;8.552;2022-09-17T04:00:13;18.00;;;4.33;;
1691;SDS011;843;52.054;8.552;2022-09-17T04:02:41;17.43;;;5.00;;
1691;SDS011;843;52.054;8.552;2022-09-17T04:05:08;17.83;;;3.53;;
1691;SDS011;843;52.054;8.552;2022-09-17T04:07:35;15.10;;;4.00;;
1691;SDS011;843;52.054;8.552;2022-09-17T04:10:03;10.50;;;3.80;;
1691;SDS011;843;52.054;8.552;2022-09-17T04:12:31;14.23;;;3.80;;
1691;SDS011;843;52.054;8.552;2022-09-17T04:14:57;16.23;;;3.40;;
1691;SDS011;843;52.054;8.552;2022-09-17T04:17:24;10.67;;;3.33;;
1691;SDS011;843;52.054;8.552;2022-09-17T04:19:50;17.87;;;3.07;;
1691;SDS011;843;52.054;8.552;2022-09-17T04:22:17;15.47;;;3.73;;
1691;SDS011;843;52.054;8.552;2022-09-17T04:24:44;18.67;;;4.27;;
1691;SDS011;843;52.054;8.552;2022-09-17T04:27:12;19.93;;;3.97;;
1691;SDS011;843;52.054;8.552;2022-09-17T04:29:38;8.00;;;2.70;;
1691;SDS011;843;52.054;8.552;2022-09-17T04:32:05;18.87;;;3.60;;
1691;SDS011;843;52.054;8.552;2022-09-17T04:34:32;17.87;;;3.53;;
1691;SDS011;843;52.054;8.552;2022-09-17T04:36:58;21.03;;;3.63;;
1691;SDS011;843;52.054;8.552;2022-09-17T04:39:25;15.43;;;3.57;;
1691;SDS011;843;52.054;8.552;2022-09-17T04:41:52;21.13;;;3.60;;
1691;SDS011;843;52.054;8.552;2022-09-17T04:44:20;9.93;;;2.90;;
1691;SDS011;843;52.054;8.552;2022-09-17T04:46:46;14.60;;;2.77;;
1691;SDS011;843;52.054;8.552;2022-09-17T04:49:13;13.77;;;3.23;;
1691;SDS011;843;52.054;8.552;2022-09-17T04:51:39;16.73;;;3.40;;
1691;SDS011;843;52.054;8.552;2022-09-17T04:54:06;19.10;;;5.40;;
1691;SDS011;843;52.054;8.552;2022-09-17T04:56:33;21.57;;;3.43;;
1691;SDS011;843;52.054;8.552;2022-09-17T04:58:59;18.10;;;3.60;;
1691;SDS011;843;52.054;8.552;2022-09-17T05:01:27;20.10;;;3.57;;
1691;SDS011;843;52.054;8.552;2022-09-17T05:03:54;18.83;;;3.80;;
1691;SDS011;843;52.054;8.552;2022-09-17T05:06:20;13.83;;;4.23;;
1691;SDS011;843;52.054;8.552;2022-09-17T05:08:47;17.50;;;4.87;;
1691;SDS011;843;52.054;8.552;2022-09-17T05:11:14;16.60;;;3.53;;
1691;SDS011;843;52.054;8.552;2022-09-17T05:13:41;9.40;;;3.03;;
1691;SDS011;843;52.054;8.552;2022-09-17T05:16:08;10.97;;;2.90;;
1691;SDS011;843;52.054;8.552;2022-09-17T05:18:36;19.23;;;3.50;;
1691;SDS011;843;52.054;8.552;2022-09-17T05:21:02;16.73;;;3.33;;
1691;SDS011;843;52.054;8.552;2022-09-17T05:23:29;13.67;;;3.40;;
1691;SDS011;843;52.054;8.552;2022-09-17T05:25:56;17.80;;;3.73;;
1691;SDS011;843;52.054;8.552;2022-09-17T05:28:23;11.50;;;3.50;;
1691;SDS011;843;52.054;8.552;2022-09-17T05:30:50;13.57;;;3.40;;
1691;SDS011;843;52.054;8.552;2022-09-17T05:33:17;21.73;;;4.10;;
1691;SDS011;843;52.054;8.552;2022-09-17T05:35:45;17.80;;;4.13;;
1691;SDS011;843;52.054;8.552;2022-09-17T05:38:12;12.53;;;2.97;;
1691;SDS011;843;52.054;8.552;2022-09-17T05:40:39;11.30;;;2.50;;
1691;SDS011;843;52.054;8.552;2022-09-17T05:43:05;13.40;;;3.00;;
1691;SDS011;843;52.054;8.552;2022-09-17T05:45:32;22.97;;;3.57;;
1691;SDS011;843;52.054;8.552;2022-09-17T05:48:00;8.70;;;3.17;;
1691;SDS011;843;52.054;8.552;2022-09-17T05:50:27;10.00;;;2.37;;
1691;SDS011;843;52.054;8.552;2022-09-17T05:52:56;10.27;;;2.50;;
1691;SDS011;843;52.054;8.552;2022-09-17T05:55:22;10.70;;;3.10;;
1691;SDS011;843;52.054;8.552;2022-09-17T05:57:49;13.30;;;3.30;;
1691;SDS011;843;52.054;8.552;2022-09-17T06:00:16;9.57;;;2.33;;
1691;SDS011;843;52.054;8.552;2022-09-17T06:02:43;13.60;;;3.03;;
1691;SDS011;843;52.054;8.552;2022-09-17T06:05:10;16.77;;;2.77;;
1691;SDS011;843;52.054;8.552;2022-09-17T06:07:37;10.37;;;2.60;;
1691;SDS011;843;52.054;8.552;2022-09-17T06:10:05;12.27;;;2.67;;
1691;SDS011;843;52.054;8.552;2022-09-17T06:12:33;6.33;;;2.30;;
1691;SDS011;843;52.054;8.552;2022-09-17T06:15:00;9.23;;;2.10;;
1691;SDS011;843;52.054;8.552;2022-09-17T06:17:27;22.13;;;3.67;;
1691;SDS011;843;52.054;8.552;2022-09-17T06:19:54;10.77;;;2.83;;
1691;SDS011;843;52.054;8.552;2022-09-17T06:22:20;11.67;;;3.37;;
1691;SDS011;843;52.054;8.552;2022-09-17T06:24:49;7.70;;;1.87;;
1691;SDS011;843;52.054;8.552;2022-09-17T06:27:17;7.60;;;2.00;;
1691;SDS011;843;52.054;8.552;2022-09-17T06:29:44;13.70;;;3.20;;
1691;SDS011;843;52.054;8.552;2022-09-17T06:32:11;7.23;;;1.87;;
1691;SDS011;843;52.054;8.552;2022-09-17T06:34:39;10.23;;;2.07;;
1691;SDS011;843;52.054;8.552;2022-09-17T06:37:06;9.80;;;2.20;;
1691;SDS011;843;52.054;8.552;2022-09-17T06:39:33;6.33;;;1.80;;
1691;SDS011;843;52.054;8.552;2022-09-17T06:41:59;8.63;;;2.27;;
1691;SDS011;843;52.054;8.552;2022-09-17T06:44:27;5.70;;;2.20;;
1691;SDS011;843;52.054;8.552;2022-09-17T06:46:54;9.30;;;2.60;;
1691;SDS011;843;52.054;8.552;2022-09-17T06:49:21;10.80;;;2.57;;
1691;SDS011;843;52.054;8.552;2022-09-17T06:51:48;5.80;;;1.77;;
1691;SDS011;843;52.054;8.552;2022-09-17T06:54:14;7.60;;;1.70;;
1691;SDS011;843;52.054;8.552;2022-09-17T06:56:41;9.87;;;1.57;;
1691;SDS011;843;52.054;8.552;2022-09-17T06:59:08;10.63;;;2.10;;
1691;SDS011;843;52.054;8.552;2022-09-17T07:01:36;9.40;;;1.97;;
1691;SDS011;843;52.054;8.552;2022-09-17T07:04:02;6.20;;;2.10;;
1691;SDS011;843;52.054;8.552;2022-09-17T07:06:29;6.03;;;1.90;;
1691;SDS011;843;52.054;8.552;2022-09-17T07:08:56;15.17;;;2.67;;
1691;SDS011;843;52.054;8.552;2022-09-17T07:11:23;13.50;;;1.60;;
1691;SDS011;843;52.054;8.552;2022-09-17T07:13:50;10.77;;;1.70;;
1691;SDS011;843;52.054;8.552;2022-09-17T07:16:16;7.90;;;2.27;;
1691;SDS011;843;52.054;8.552;2022-09-17T07:18:45;8.80;;;2.37;;
1691;SDS011;843;52.054;8.552;2022-09-17T07:21:11;7.23;;;1.63;;
1691;SDS011;843;52.054;8.552;2022-09-17T07:23:38;8.40;;;1.80;;
1691;SDS011;843;52.054;8.552;2022-09-17T07:26:05;9.80;;;1.93;;
1691;SDS011;843;52.054;8.552;2022-09-17T07:28:33;6.37;;;1.83;;
1691;SDS011;843;52.054;8.552;2022-09-17T07:31:01;5.27;;;1.97;;
1691;SDS011;843;52.054;8.552;2022-09-17T07:33:29;6.50;;;1.70;;
1691;SDS011;843;52.054;8.552;2022-09-17T07:35:57;10.53;;;2.20;;
1691;SDS011;843;52.054;8.552;2022-09-17T07:38:25;9.40;;;2.73;;
1691;SDS011;843;52.054;8.552;2022-09-17T07:40:54;4.37;;;1.53;;
1691;SDS011;843;52.054;8.552;2022-09-17T07:43:22;7.53;;;1.80;;
1691;SDS011;843;52.054;8.552;2022-09-17T07:45:48;5.90;;;1.77;;
1691;SDS011;843;52.054;8.552;2022-09-17T07:48:15;9.90;;;2.30;;
1691;SDS011;843;52.054;8.552;2022-09-17T07:50:42;4.70;;;1.70;;
1691;SDS011;843;52.054;8.552;2022-09-17T07:53:10;6.40;;;1.90;;
1691;SDS011;843;52.054;8.552;2022-09-17T07:55:37;5.90;;;1.70;;
1691;SDS011;843;52.054;8.552;2022-09-17T07:58:03;12.50;;;2.20;;
1691;SDS011;843;52.054;8.552;2022-09-17T08:00:30;7.77;;;2.37;;
1691;SDS011;843;52.054;8.552;2022-09-17T08:02:57;10.43;;;2.50;;
1691;SDS011;843;52.054;8.552;2022-09-17T08:05:25;9.40;;;2.70;;
1691;SDS011;843;52.054;8.552;2022-09-17T08:07:52;7.30;;;2.37;;
1691;SDS011;843;52.054;8.552;2022-09-17T08:10:21;6.27;;;2.40;;
1691;SDS011;843;52.054;8.552;2022-09-17T08:12:48;8.83;;;2.07;;
1691;SDS011;843;52.054;8.552;2022-09-17T08:15:15;6.93;;;2.03;;
1691;SDS011;843;52.054;8.552;2022-09-17T08:17:43;7.30;;;1.90;;
1691;SDS011;843;52.054;8.552;2022-09-17T08:20:10;11.50;;;1.97;;
1691;SDS011;843;52.054;8.552;2022-09-17T08:22:38;8.77;;;2.03;;
1691;SDS011;843;52.054;8.552;2022-09-17T08:25:05;6.73;;;2.27;;
1691;SDS011;843;52.054;8.552;2022-09-17T08:27:34;7.43;;;2.03;;
1691;SDS011;843;52.054;8.552;2022-09-17T08:30:06;5.57;;;1.70;;
1691;SDS011;843;52.054;8.552;2022-09-17T08:32:34;7.90;;;2.40;;
1691;SDS011;843;52.054;8.552;2022-09-17T08:35:00;8.50;;;1.63;;
1691;SDS011;843;52.054;8.552;2022-09-17T08:37:27;5.20;;;1.50;;
1691;SDS011;843;52.054;8.552;2022-09-17T08:39:54;10.70;;;2.23;;
1691;SDS011;843;52.054;8.552;2022-09-17T08:42:23;7.77;;;1.60;;
1691;SDS011;843;52.054;8.552;2022-09-17T08:44:54;4.83;;;1.67;;
1691;SDS011;843;52.054;8.552;2022-09-17T08:47:22;4.67;;;2.50;;
1691;SDS011;843;52.054;8.552;2022-09-17T08:49:51;5.40;;;1.83;;
1691;SDS011;843;52.054;8.552;2022-09-17T08:52:40;6.70;;;1.90;;
1691;SDS011;843;52.054;8.552;2022-09-17T08:55:16;4.10;;;1.60;;
1691;SDS011;843;52.054;8.552;2022-09-17T08:57:55;7.30;;;1.80;;
1691;SDS011;843;52.054;8.552;2022-09-17T09:00:28;8.70;;;1.60;;
1691;SDS011;843;52.054;8.552;2022-09-17T09:03:03;5.90;;;1.77;;
1691;SDS011;843;52.054;8.552;2022-09-17T09:05:38;5.93;;;1.50;;
1691;SDS011;843;52.054;8.552;2022-09-17T09:08:10;6.27;;;1.50;;
1691;SDS011;843;52.054;8.552;2022-09-17T09:10:41;4.40;;;1.40;;
1691;SDS011;843;52.054;8.552;2022-09-17T09:13:11;7.93;;;2.30;;
1691;SDS011;843;52.054;8.552;2022-09-17T09:15:43;4.90;;;1.70;;
1691;SDS011;843;52.054;8.552;2022-09-17T09:18:14;9.37;;;1.63;;
1691;SDS011;843;52.054;8.552;2022-09-17T09:20:46;6.57;;;1.30;;
1691;SDS011;843;52.054;8.552;2022-09-17T09:23:16;2.83;;;1.30;;
1691;SDS011;843;52.054;8.552;2022-09-17T09:25:55;3.30;;;1.20;;
1691;SDS011;843;52.054;8.552;2022-09-17T09:28:30;4.97;;;1.30;;
1691;SDS011;843;52.054;8.552;2022-09-17T09:31:04;4.50;;;1.67;;
1691;SDS011;843;52.054;8.552;2022-09-17T09:33:38;3.10;;;1.10;;
1691;SDS011;843;52.054;8.552;2022-09-17T09:36:07;3.00;;;0.80;;
1691;SDS011;843;52.054;8.552;2022-09-17T09:38:37;2.67;;;0.77;;
1691;SDS011;843;52.054;8.552;2022-09-17T09:41:07;3.80;;;1.00;;
1691;SDS011;843;52.054;8.552;2022-09-17T09:43:38;3.67;;;1.10;;
1691;SDS011;843;52.054;8.552;2022-09-17T09:46:12;2.77;;;0.87;;
1691;SDS011;843;52.054;8.552;2022-09-17T09:48:48;5.63;;;1.00;;
1691;SDS011;843;52.054;8.552;2022-09-17T09:51:23;4.70;;;1.07;;
1691;SDS011;843;52.054;8.552;2022-09-17T09:54:00;4.90;;;1.00;;
1691;SDS011;843;52.054;8.552;2022-09-17T09:56:37;3.87;;;0.80;;
1691;SDS011;843;52.054;8.552;2022-09-17T09:59:10;1.83;;;0.77;;
1691;SDS011;843;52.054;8.552;2022-09-17T10:01:39;1.57;;;0.70;;
1691;SDS011;843;52.054;8.552;2022-09-17T10:04:13;4.33;;;1.00;;
1691;SDS011;843;52.054;8.552;2022-09-17T10:06:41;4.37;;;1.50;;
1691;SDS011;843;52.054;8.552;2022-09-17T10:09:09;7.03;;;1.63;;
1691;SDS011;843;52.054;8.552;2022-09-17T10:11:37;3.47;;;1.20;;
1691;SDS011;843;52.054;8.552;2022-09-17T10:14:13;4.43;;;1.20;;
1691;SDS011;843;52.054;8.552;2022-09-17T10:16:49;4.10;;;2.20;;
1691;SDS011;843;52.054;8.552;2022-09-17T10:19:19;5.10;;;1.53;;
1691;SDS011;843;52.054;8.552;2022-09-17T10:21:49;4.47;;;1.10;;
1691;SDS011;843;52.054;8.552;2022-09-17T10:24:20;6.40;;;1.53;;
1691;SDS011;843;52.054;8.552;2022-09-17T10:26:49;4.70;;;1.23;;
1691;SDS011;843;52.054;8.552;2022-09-17T10:29:17;4.43;;;1.10;;
1691;SDS011;843;52.054;8.552;2022-09-17T10:31:45;7.07;;;1.30;;
1691;SDS011;843;52.054;8.552;2022-09-17T10:34:18;6.97;;;2.07;;
1691;SDS011;843;52.054;8.552;2022-09-17T10:36:47;2.80;;;0.90;;
1691;SDS011;843;52.054;8.552;2022-09-17T10:39:18;4.60;;;1.10;;
1691;SDS011;843;52.054;8.552;2022-09-17T10:41:56;7.00;;;1.17;;
1691;SDS011;843;52.054;8.552;2022-09-17T10:44:24;4.77;;;1.43;;
1691;SDS011;843;52.054;8.552;2022-09-17T10:46:51;2.70;;;1.07;;
1691;SDS011;843;52.054;8.552;2022-09-17T10:49:24;5.13;;;0.97;;
1691;SDS011;843;52.054;8.552;2022-09-17T10:52:03;7.00;;;1.07;;
1691;SDS011;843;52.054;8.552;2022-09-17T10:57:41;4.00;;;0.87;;
1691;SDS011;843;52.054;8.552;2022-09-17T11:00:16;2.93;;;0.83;;
1691;SDS011;843;52.054;8.552;2022-09-17T11:05:53;8.47;;;1.57;;
1691;SDS011;843;52.054;8.552;2022-09-17T11:08:28;2.30;;;1.13;;
1691;SDS011;843;52.054;8.552;2022-09-17T11:11:00;2.80;;;0.70;;
1691;SDS011;843;52.054;8.552;2022-09-17T11:13:31;6.17;;;1.03;;
1691;SDS011;843;52.054;8.552;2022-09-17T11:16:09;2.77;;;0.80;;
1691;SDS011;843;52.054;8.552;2022-09-17T11:18:40;6.00;;;0.77;;
1691;SDS011;843;52.054;8.552;2022-09-17T11:21:25;1.43;;;0.77;;
1691;SDS011;843;52.054;8.552;2022-09-17T11:24:07;2.10;;;0.70;;
1691;SDS011;843;52.054;8.552;2022-09-17T11:26:54;6.83;;;1.20;;
1691;SDS011;843;52.054;8.552;2022-09-17T11:29:29;3.80;;;0.70;;
1691;SDS011;843;52.054;8.552;2022-09-17T11:32:25;1.83;;;0.87;;
1691;SDS011;843;52.054;8.552;2022-09-17T11:35:10;1.37;;;0.77;;
1691;SDS011;843;52.054;8.552;2022-09-17T11:37:40;2.97;;;0.83;;
1691;SDS011;843;52.054;8.552;2022-09-17T11:40:14;4.80;;;0.60;;
1691;SDS011;843;52.054;8.552;2022-09-17T11:42:44;2.30;;;0.60;;
1691;SDS011;843;52.054;8.552;2022-09-17T11:45:14;2.53;;;0.83;;
1691;SDS011;843;52.054;8.552;2022-09-17T11:47:43;2.77;;;1.00;;
1691;SDS011;843;52.054;8.552;2022-09-17T11:50:15;7.10;;;2.10;;
1691;SDS011;843;52.054;8.552;2022-09-17T11:52:46;6.57;;;1.43;;
1691;SDS011;843;52.054;8.552;2022-09-17T11:55:22;3.70;;;1.17;;
1691;SDS011;843;52.054;8.552;2022-09-17T11:57:56;5.30;;;1.13;;
1691;SDS011;843;52.054;8.552;2022-09-17T12:00:25;6.73;;;1.70;;
1691;SDS011;843;52.054;8.552;2022-09-17T12:02:55;6.90;;;1.53;;
1691;SDS011;843;52.054;8.552;2022-09-17T12:05:24;5.23;;;0.73;;
1691;SDS011;843;52.054;8.552;2022-09-17T12:07:55;2.60;;;0.73;;
1691;SDS011;843;52.054;8.552;2022-09-17T12:10:32;5.23;;;1.20;;
1691;SDS011;843;52.054;8.552;2022-09-17T12:13:02;3.50;;;1.13;;
1691;SDS011;843;52.054;8.552;2022-09-17T12:15:37;4.30;;;1.00;;
1691;SDS011;843;52.054;8.552;2022-09-17T12:18:09;4.13;;;0.80;;
1691;SDS011;843;52.054;8.552;2022-09-17T12:20:44;3.53;;;1.07;;
1691;SDS011;843;52.054;8.552;2022-09-17T12:23:13;2.23;;;0.97;;
1691;SDS011;843;52.054;8.552;2022-09-17T12:25:44;8.60;;;1.10;;
1691;SDS011;843;52.054;8.552;2022-09-17T12:28:17;4.67;;;1.10;;
1691;SDS011;843;52.054;8.552;2022-09-17T12:30:46;2.73;;;0.63;;
1691;SDS011;843;52.054;8.552;2022-09-17T12:33:19;3.67;;;0.90;;
1691;SDS011;843;52.054;8.552;2022-09-17T12:41:30;7.30;;;1.03;;
1691;SDS011;843;52.054;8.552;2022-09-17T12:44:05;3.23;;;1.30;;
1691;SDS011;843;52.054;8.552;2022-09-17T12:46:44;3.77;;;0.97;;
1691;SDS011;843;52.054;8.552;2022-09-17T12:49:22;5.33;;;1.10;;
1691;SDS011;843;52.054;8.552;2022-09-17T12:51:58;4.73;;;1.20;;
1691;SDS011;843;52.054;8.552;2022-09-17T12:54:35;3.60;;;0.80;;
1691;SDS011;843;52.054;8.552;2022-09-17T12:57:10;15.47;;;1.40;;
1691;SDS011;843;52.054;8.552;2022-09-17T12:59:45;5.40;;;1.07;;
1691;SDS011;843;52.054;8.552;2022-09-17T13:02:16;2.50;;;0.80;;
1691;SDS011;843;52.054;8.552;2022-09-17T13:04:52;5.47;;;1.43;;
1691;SDS011;843;52.054;8.552;2022-09-17T13:07:36;5.70;;;1.00;;
1691;SDS011;843;52.054;8.552;2022-09-17T13:10:18;4.93;;;1.30;;
1691;SDS011;843;52.054;8.552;2022-09-17T13:13:01;2.73;;;0.63;;
1691;SDS011;843;52.054;8.552;2022-09-17T13:15:50;6.50;;;1.20;;
1691;SDS011;843;52.054;8.552;2022-09-17T13:18:22;2.73;;;1.20;;
1691;SDS011;843;52.054;8.552;2022-09-17T13:21:02;4.67;;;1.07;;
1691;SDS011;843;52.054;8.552;2022-09-17T13:23:38;8.43;;;1.30;;
1691;SDS011;843;52.054;8.552;2022-09-17T13:26:08;4.80;;;1.40;;
1691;SDS011;843;52.054;8.552;2022-09-17T13:28:37;4.60;;;1.30;;
1691;SDS011;843;52.054;8.552;2022-09-17T13:31:05;5.60;;;1.27;;
1691;SDS011;843;52.054;8.552;2022-09-17T13:33:49;9.03;;;1.60;;
1691;SDS011;843;52.054;8.552;2022-09-17T13:39:08;4.43;;;0.90;;
1691;SDS011;843;52.054;8.552;2022-09-17T13:41:39;2.60;;;0.90;;
1691;SDS011;843;52.054;8.552;2022-09-17T13:44:06;5.60;;;1.00;;
1691;SDS011;843;52.054;8.552;2022-09-17T13:46:34;2.80;;;0.83;;
1691;SDS011;843;52.054;8.552;2022-09-17T13:49:02;3.10;;;0.70;;
1691;SDS011;843;52.054;8.552;2022-09-17T13:51:44;5.80;;;1.10;;
1691;SDS011;843;52.054;8.552;2022-09-17T13:54:13;4.47;;;1.27;;
1691;SDS011;843;52.054;8.552;2022-09-17T13:56:42;1.77;;;0.70;;
1691;SDS011;843;52.054;8.552;2022-09-17T13:59:11;3.17;;;0.60;;
1691;SDS011;843;52.054;8.552;2022-09-17T14:08:08;3.70;;;0.83;;
1691;SDS011;843;52.054;8.552;2022-09-17T14:10:41;5.63;;;1.00;;
1691;SDS011;843;52.054;8.552;2022-09-17T14:13:27;2.67;;;0.77;;
1691;SDS011;843;52.054;8.552;2022-09-17T14:19:00;5.13;;;1.30;;
1691;SDS011;843;52.054;8.552;2022-09-17T14:21:29;4.30;;;1.50;;
1691;SDS011;843;52.054;8.552;2022-09-17T14:23:57;3.57;;;1.00;;
1691;SDS011;843;52.054;8.552;2022-09-17T14:26:38;5.17;;;1.37;;
1691;SDS011;843;52.054;8.552;2022-09-17T14:29:16;2.93;;;1.00;;
1691;SDS011;843;52.054;8.552;2022-09-17T14:31:58;5.00;;;1.90;;
1691;SDS011;843;52.054;8.552;2022-09-17T14:34:24;8.43;;;2.07;;
1691;SDS011;843;52.054;8.552;2022-09-17T14:36:51;5.17;;;1.40;;
1691;SDS011;843;52.054;8.552;2022-09-17T14:39:20;6.27;;;1.40;;
1691;SDS011;843;52.054;8.552;2022-09-17T14:41:47;7.03;;;1.00;;
1691;SDS011;843;52.054;8.552;2022-09-17T14:44:17;7.00;;;1.20;;
1691;SDS011;843;52.054;8.552;2022-09-17T14:46:46;2.57;;;1.30;;
1691;SDS011;843;52.054;8.552;2022-09-17T14:49:17;10.90;;;1.63;;
1691;SDS011;843;52.054;8.552;2022-09-17T14:51:46;5.43;;;1.63;;
1691;SDS011;843;52.054;8.552;2022-09-17T14:54:17;4.30;;;0.97;;
1691;SDS011;843;52.054;8.552;2022-09-17T14:56:52;10.97;;;1.90;;
1691;SDS011;843;52.054;8.552;2022-09-17T15:02:20;13.00;;;1.53;;
1691;SDS011;843;52.054;8.552;2022-09-17T15:04:52;6.67;;;1.30;;
1691;SDS011;843;52.054;8.552;2022-09-17T15:07:20;5.97;;;1.27;;
1691;SDS011;843;52.054;8.552;2022-09-17T15:09:47;4.47;;;1.60;;
1691;SDS011;843;52.054;8.552;2022-09-17T15:12:14;6.27;;;1.73;;
1691;SDS011;843;52.054;8.552;2022-09-17T15:14:44;7.67;;;1.40;;
1691;SDS011;843;52.054;8.552;2022-09-17T15:17:14;10.07;;;1.80;;
1691;SDS011;843;52.054;8.552;2022-09-17T15:19:42;8.53;;;1.50;;
1691;SDS011;843;52.054;8.552;2022-09-17T15:22:11;5.97;;;1.20;;
1691;SDS011;843;52.054;8.552;2022-09-17T15:24:40;4.00;;;1.30;;
1691;SDS011;843;52.054;8.552;2022-09-17T15:27:11;6.07;;;1.30;;
1691;SDS011;843;52.054;8.552;2022-09-17T15:29:40;3.73;;;1.00;;
1691;SDS011;843;52.054;8.552;2022-09-17T15:32:10;8.67;;;1.60;;
1691;SDS011;843;52.054;8.552;2022-09-17T15:34:39;4.90;;;1.10;;
1691;SDS011;843;52.054;8.552;2022-09-17T15:37:09;6.43;;;1.40;;
1691;SDS011;843;52.054;8.552;2022-09-17T15:39:45;7.23;;;1.50;;
1691;SDS011;843;52.054;8.552;2022-09-17T15:42:18;6.37;;;1.60;;
1691;SDS011;843;52.054;8.552;2022-09-17T15:44:45;4.30;;;1.23;;
1691;SDS011;843;52.054;8.552;2022-09-17T15:50:13;9.20;;;1.80;;
1691;SDS011;843;52.054;8.552;2022-09-17T15:52:41;4.80;;;1.10;;
1691;SDS011;843;52.054;8.552;2022-09-17T15:57:53;7.13;;;1.50;;
1691;SDS011;843;52.054;8.552;2022-09-17T16:00:20;4.90;;;1.40;;
1691;SDS011;843;52.054;8.552;2022-09-17T16:02:48;9.87;;;1.80;;
1691;SDS011;843;52.054;8.552;2022-09-17T16:08:19;7.57;;;1.60;;
1691;SDS011;843;52.054;8.552;2022-09-17T16:10:47;6.47;;;1.40;;
1691;SDS011;843;52.054;8.552;2022-09-17T16:13:14;10.40;;;1.67;;
1691;SDS011;843;52.054;8.552;2022-09-17T16:15:40;6.90;;;1.40;;
1691;SDS011;843;52.054;8.552;2022-09-17T16:18:12;9.60;;;2.00;;
1691;SDS011;843;52.054;8.552;2022-09-17T16:20:39;7.13;;;1.40;;
1691;SDS011;843;52.054;8.552;2022-09-17T16:23:07;7.30;;;1.33;;
1691;SDS011;843;52.054;8.552;2022-09-17T16:25:33;5.70;;;1.23;;